createdAt,value
2019-02-17T00:00:05.693Z,2.31
2019-02-17T00:01:05.888Z,2.25
2019-02-17T00:02:05.885Z,2.25
2019-02-17T00:03:05.211Z,2.25
2019-02-17T00:04:05.466Z,2.25
2019-02-17T00:05:05.616Z,2.25
2019-02-17T00:06:05.869Z,2.19
2019-02-17T00:07:05.758Z,2.19
2019-02-17T00:08:05.046Z,2.12
2019-02-17T00:09:05.142Z,2.12
2019-02-17T00:10:05.464Z,2.12
2019-02-17T00:11:05.626Z,2.12
2019-02-17T00:12:05.455Z,2.06
2019-02-17T00:13:05.591Z,2.06
2019-02-17T00:14:05.521Z,2.06
2019-02-17T00:15:06.115Z,2.06
2019-02-17T00:16:05.545Z,2.06
2019-02-17T00:17:05.636Z,2.06
2019-02-17T00:18:05.610Z,2.00
2019-02-17T00:19:05.164Z,2.00
2019-02-17T00:20:05.214Z,2.00
2019-02-17T00:21:05.629Z,2.00
2019-02-17T00:22:06.102Z,2.00
2019-02-17T00:23:05.377Z,1.94
2019-02-17T00:24:05.054Z,1.94
2019-02-17T00:25:05.600Z,1.94
2019-02-17T00:26:05.767Z,1.94
2019-02-17T00:27:05.873Z,1.94
2019-02-17T00:28:05.066Z,1.94
2019-02-17T00:29:05.320Z,1.94
2019-02-17T00:30:05.713Z,1.94
2019-02-17T00:31:05.716Z,1.94
2019-02-17T00:32:05.038Z,1.94
2019-02-17T00:33:05.711Z,1.88
2019-02-17T00:34:05.767Z,1.88
2019-02-17T00:35:05.366Z,1.88
2019-02-17T00:36:05.631Z,1.88
2019-02-17T00:37:05.869Z,1.81
2019-02-17T00:38:05.469Z,1.81
2019-02-17T00:39:05.833Z,1.81
2019-02-17T00:40:05.858Z,1.81
2019-02-17T00:41:05.857Z,1.81
2019-02-17T00:42:05.460Z,1.81
2019-02-17T00:43:06.823Z,1.81
2019-02-17T00:44:05.293Z,1.75
2019-02-17T00:45:05.871Z,1.75
2019-02-17T00:46:05.454Z,1.75
2019-02-17T00:47:05.622Z,1.75
2019-02-17T00:48:05.760Z,1.75
2019-02-17T00:49:05.956Z,1.75
2019-02-17T00:50:05.621Z,1.69
2019-02-17T00:51:05.875Z,1.75
2019-02-17T00:52:05.845Z,1.69
2019-02-17T00:53:05.302Z,1.69
2019-02-17T00:54:06.012Z,1.69
2019-02-17T00:55:05.458Z,1.75
2019-02-17T00:56:05.932Z,1.69
2019-02-17T00:57:05.295Z,1.69
2019-02-17T00:58:05.777Z,1.69
2019-02-17T00:59:09.926Z,1.62
2019-02-17T01:00:05.857Z,1.69
2019-02-17T01:01:06.124Z,1.62
2019-02-17T01:02:05.068Z,1.62
2019-02-17T01:03:05.307Z,1.62
2019-02-17T01:04:05.858Z,1.62
2019-02-17T01:05:05.145Z,1.62
2019-02-17T01:06:05.122Z,1.62
2019-02-17T01:07:05.866Z,1.62
2019-02-17T01:08:05.956Z,1.62
2019-02-17T01:09:05.795Z,1.62
2019-02-17T01:10:05.590Z,1.62
2019-02-17T01:11:05.707Z,1.62
2019-02-17T01:12:06.016Z,1.62
2019-02-17T01:13:05.144Z,1.62
2019-02-17T01:14:05.628Z,1.62
2019-02-17T01:15:05.883Z,1.62
2019-02-17T01:16:05.942Z,1.62
2019-02-17T01:17:05.475Z,1.56
2019-02-17T01:18:05.964Z,1.56
2019-02-17T01:19:06.120Z,1.56
2019-02-17T01:20:05.153Z,1.56
2019-02-17T01:21:05.104Z,1.56
2019-02-17T01:22:05.300Z,1.50
2019-02-17T01:23:05.376Z,1.50
2019-02-17T01:24:05.713Z,1.50
2019-02-17T01:25:06.028Z,1.50
2019-02-17T01:26:05.142Z,1.50
2019-02-17T01:27:05.225Z,1.44
2019-02-17T01:28:05.371Z,1.44
2019-02-17T01:29:05.479Z,1.38
2019-02-17T01:30:05.475Z,1.38
2019-02-17T01:31:05.815Z,1.44
2019-02-17T01:32:05.865Z,1.44
2019-02-17T01:33:05.378Z,1.38
2019-02-17T01:34:05.870Z,1.38
2019-02-17T01:35:05.075Z,1.38
2019-02-17T01:36:05.139Z,1.31
2019-02-17T01:37:05.946Z,1.31
2019-02-17T01:38:05.364Z,1.31
2019-02-17T01:39:05.869Z,1.31
2019-02-17T01:40:05.135Z,1.31
2019-02-17T01:41:05.639Z,1.25
2019-02-17T01:42:05.159Z,1.25
2019-02-17T01:43:05.382Z,1.19
2019-02-17T01:44:05.555Z,1.19
2019-02-17T01:45:05.045Z,1.19
2019-02-17T01:46:05.113Z,1.12
2019-02-17T01:47:05.386Z,1.12
2019-02-17T01:48:05.494Z,1.12
2019-02-17T01:49:05.787Z,1.12
2019-02-17T01:50:06.029Z,1.12
2019-02-17T01:51:05.059Z,1.12
2019-02-17T01:52:05.350Z,1.06
2019-02-17T01:53:05.616Z,1.06
2019-02-17T01:54:05.856Z,1.06
2019-02-17T01:55:05.464Z,1.06
2019-02-17T01:56:05.624Z,1.06
2019-02-17T01:57:05.729Z,1.00
2019-02-17T01:58:05.858Z,1.00
2019-02-17T01:59:05.132Z,1.00
2019-02-17T02:00:05.499Z,1.00
2019-02-17T02:01:05.437Z,1.00
2019-02-17T02:02:06.098Z,1.00
2019-02-17T02:03:05.118Z,1.00
2019-02-17T02:04:05.621Z,0.94
2019-02-17T02:05:05.134Z,0.94
2019-02-17T02:06:05.317Z,0.94
2019-02-17T02:07:05.303Z,0.94
2019-02-17T02:08:05.474Z,0.94
2019-02-17T02:09:05.121Z,0.94
2019-02-17T02:10:05.231Z,0.94
2019-02-17T02:11:05.363Z,0.88
2019-02-17T02:12:05.381Z,0.88
2019-02-17T02:13:05.850Z,0.88
2019-02-17T02:14:06.410Z,0.88
2019-02-17T02:15:05.039Z,0.81
2019-02-17T02:16:05.721Z,0.81
2019-02-17T02:17:06.028Z,0.81
2019-02-17T02:18:05.982Z,0.81
2019-02-17T02:19:05.230Z,0.81
2019-02-17T02:20:05.266Z,0.75
2019-02-17T02:21:05.324Z,0.81
2019-02-17T02:22:05.832Z,0.75
2019-02-17T02:23:05.942Z,0.75
2019-02-17T02:24:05.920Z,0.75
2019-02-17T02:25:05.206Z,0.75
2019-02-17T02:26:05.709Z,0.75
2019-02-17T02:27:05.463Z,0.69
2019-02-17T02:28:05.959Z,0.69
2019-02-17T02:29:06.010Z,0.69
2019-02-17T02:30:06.151Z,0.69
2019-02-17T02:31:05.877Z,0.69
2019-02-17T02:32:06.162Z,0.69
2019-02-17T02:33:05.044Z,0.69
2019-02-17T02:34:05.201Z,0.69
2019-02-17T02:35:05.522Z,0.69
2019-02-17T02:36:05.719Z,0.69
2019-02-17T02:37:05.222Z,0.62
2019-02-17T02:38:05.459Z,0.62
2019-02-17T02:39:05.072Z,0.62
2019-02-17T02:40:05.391Z,0.62
2019-02-17T02:41:05.864Z,0.62
2019-02-17T02:42:05.220Z,0.62
2019-02-17T02:43:05.215Z,0.62
2019-02-17T02:44:05.724Z,0.62
2019-02-17T02:45:05.795Z,0.62
2019-02-17T02:46:05.874Z,0.56
2019-02-17T02:47:06.038Z,0.56
2019-02-17T02:48:05.164Z,0.56
2019-02-17T02:49:05.459Z,0.56
2019-02-17T02:50:05.715Z,0.56
2019-02-17T02:51:05.939Z,0.56
2019-02-17T02:52:05.945Z,0.50
2019-02-17T02:53:05.555Z,0.50
2019-02-17T02:54:06.530Z,0.50
2019-02-17T02:55:05.938Z,0.44
2019-02-17T02:56:05.848Z,0.38
2019-02-17T02:57:05.316Z,0.38
2019-02-17T02:58:05.205Z,0.38
2019-02-17T02:59:05.544Z,0.38
2019-02-17T03:00:05.460Z,0.38
2019-02-17T03:01:05.163Z,0.38
2019-02-17T03:02:05.328Z,0.38
2019-02-17T03:03:05.223Z,0.38
2019-02-17T03:04:05.597Z,0.38
2019-02-17T03:05:05.793Z,0.38
2019-02-17T03:06:05.156Z,0.38
2019-02-17T03:07:05.128Z,0.38
2019-02-17T03:08:05.221Z,0.44
2019-02-17T03:09:05.466Z,0.44
2019-02-17T03:10:05.394Z,0.44
2019-02-17T03:11:05.449Z,0.44
2019-02-17T03:12:05.054Z,0.44
2019-02-17T03:13:05.464Z,0.44
2019-02-17T03:14:05.651Z,0.44
2019-02-17T03:15:05.591Z,0.44
2019-02-17T03:16:05.202Z,0.38
2019-02-17T03:17:05.709Z,0.38
2019-02-17T03:18:05.560Z,0.38
2019-02-17T03:19:05.081Z,0.38
2019-02-17T03:20:05.315Z,0.38
2019-02-17T03:21:05.381Z,0.38
2019-02-17T03:22:05.554Z,0.38
2019-02-17T03:23:05.219Z,0.31
2019-02-17T03:24:05.375Z,0.31
2019-02-17T03:25:05.693Z,0.31
2019-02-17T03:26:05.959Z,0.31
2019-02-17T03:27:05.241Z,0.31
2019-02-17T03:28:05.310Z,0.31
2019-02-17T03:29:05.845Z,0.31
2019-02-17T03:30:06.153Z,0.31
2019-02-17T03:31:05.772Z,0.31
2019-02-17T03:32:05.301Z,0.31
2019-02-17T03:33:05.938Z,0.31
2019-02-17T03:34:05.089Z,0.31
2019-02-17T03:35:05.137Z,0.31
2019-02-17T03:36:05.223Z,0.25
2019-02-17T03:37:05.784Z,0.25
2019-02-17T03:38:05.966Z,0.25
2019-02-17T03:39:06.002Z,0.25
2019-02-17T03:40:05.039Z,0.25
2019-02-17T03:41:05.386Z,0.25
2019-02-17T03:42:05.458Z,0.31
2019-02-17T03:43:05.780Z,0.31
2019-02-17T03:44:05.974Z,0.25
2019-02-17T03:45:05.475Z,0.25
2019-02-17T03:46:05.465Z,0.25
2019-02-17T03:47:05.946Z,0.25
2019-02-17T03:48:06.120Z,0.19
2019-02-17T03:49:04.972Z,0.19
2019-02-17T03:50:05.147Z,0.19
2019-02-17T03:51:05.124Z,0.19
2019-02-17T03:52:05.721Z,0.19
2019-02-17T03:53:05.618Z,0.12
2019-02-17T03:54:05.898Z,0.12
2019-02-17T03:55:05.949Z,0.12
2019-02-17T03:56:05.549Z,0.12
2019-02-17T03:57:05.603Z,0.12
2019-02-17T03:58:05.927Z,0.12
2019-02-17T03:59:05.688Z,0.12
2019-02-17T04:00:16.348Z,0.12
2019-02-17T04:01:05.673Z,0.12
2019-02-17T04:02:05.349Z,0.12
2019-02-17T04:03:05.510Z,0.06
2019-02-17T04:04:05.229Z,0.06
2019-02-17T04:05:05.690Z,0.06
2019-02-17T04:06:05.672Z,0.06
2019-02-17T04:07:05.913Z,0.06
2019-02-17T04:08:06.117Z,0.06
2019-02-17T04:09:05.032Z,0.06
2019-02-17T04:10:05.242Z,0.06
2019-02-17T04:11:05.356Z,0.06
2019-02-17T04:12:05.047Z,0.06
2019-02-17T04:13:05.216Z,0.06
2019-02-17T04:14:05.426Z,0.00
2019-02-17T04:15:05.793Z,0.00
2019-02-17T04:16:05.920Z,0.00
2019-02-17T04:17:05.373Z,0.00
2019-02-17T04:18:05.299Z,0.00
2019-02-17T04:19:05.450Z,0.00
2019-02-17T04:20:05.948Z,0.00
2019-02-17T04:21:05.035Z,0.00
2019-02-17T04:22:05.116Z,0.00
2019-02-17T04:23:05.450Z,-0.06
2019-02-17T04:24:05.535Z,-0.06
2019-02-17T04:25:05.948Z,-0.06
2019-02-17T04:26:05.140Z,-0.06
2019-02-17T04:27:05.324Z,-0.06
2019-02-17T04:28:05.386Z,-0.06
2019-02-17T04:29:05.474Z,-0.06
2019-02-17T04:30:05.698Z,-0.06
2019-02-17T04:31:05.127Z,-0.12
2019-02-17T04:32:05.203Z,-0.12
2019-02-17T04:33:05.443Z,-0.12
2019-02-17T04:34:05.511Z,-0.12
2019-02-17T04:35:05.944Z,-0.12
2019-02-17T04:36:05.917Z,-0.12
2019-02-17T04:37:05.310Z,-0.12
2019-02-17T04:38:05.675Z,-0.12
2019-02-17T04:39:05.119Z,-0.12
2019-02-17T04:40:05.652Z,-0.12
2019-02-17T04:41:05.541Z,-0.12
2019-02-17T04:42:05.788Z,-0.12
2019-02-17T04:43:05.302Z,-0.12
2019-02-17T04:44:05.554Z,-0.12
2019-02-17T04:45:05.630Z,-0.12
2019-02-17T04:46:04.974Z,-0.19
2019-02-17T04:47:05.851Z,-0.12
2019-02-17T04:48:05.292Z,-0.12
2019-02-17T04:49:05.538Z,-0.19
2019-02-17T04:50:05.039Z,-0.19
2019-02-17T04:51:05.285Z,-0.19
2019-02-17T04:52:05.860Z,-0.19
2019-02-17T04:53:05.567Z,-0.19
2019-02-17T04:54:05.877Z,-0.19
2019-02-17T04:55:05.930Z,-0.19
2019-02-17T04:56:05.059Z,-0.25
2019-02-17T04:57:05.218Z,-0.25
2019-02-17T04:58:05.457Z,-0.25
2019-02-17T04:59:05.783Z,-0.25
2019-02-17T05:00:05.913Z,-0.25
2019-02-17T05:01:05.323Z,-0.25
2019-02-17T05:02:05.382Z,-0.25
2019-02-17T05:03:05.346Z,-0.25
2019-02-17T05:04:05.648Z,-0.25
2019-02-17T05:05:05.604Z,-0.25
2019-02-17T05:06:05.058Z,-0.25
2019-02-17T05:07:05.487Z,-0.25
2019-02-17T05:08:05.611Z,-0.25
2019-02-17T05:09:05.892Z,-0.25
2019-02-17T05:10:05.168Z,-0.31
2019-02-17T05:11:05.207Z,-0.25
2019-02-17T05:12:05.211Z,-0.31
2019-02-17T05:13:05.792Z,-0.31
2019-02-17T05:14:05.232Z,-0.31
2019-02-17T05:15:05.207Z,-0.31
2019-02-17T05:16:05.273Z,-0.31
2019-02-17T05:17:05.607Z,-0.31
2019-02-17T05:18:05.190Z,-0.31
2019-02-17T05:19:05.529Z,-0.31
2019-02-17T05:20:05.710Z,-0.31
2019-02-17T05:21:05.795Z,-0.31
2019-02-17T05:22:06.020Z,-0.31
2019-02-17T05:23:05.123Z,-0.31
2019-02-17T05:24:05.370Z,-0.31
2019-02-17T05:25:06.241Z,-0.31
2019-02-17T05:26:06.016Z,-0.31
2019-02-17T05:27:05.228Z,-0.31
2019-02-17T05:28:05.293Z,-0.31
2019-02-17T05:29:05.694Z,-0.31
2019-02-17T05:30:05.771Z,-0.31
2019-02-17T05:31:05.763Z,-0.31
2019-02-17T05:32:05.381Z,-0.31
2019-02-17T05:33:04.996Z,-0.31
2019-02-17T05:34:05.540Z,-0.31
2019-02-17T05:35:05.711Z,-0.31
2019-02-17T05:36:06.907Z,-0.31
2019-02-17T05:37:05.449Z,-0.31
2019-02-17T05:38:05.615Z,-0.31
2019-02-17T05:39:05.701Z,-0.31
2019-02-17T05:40:05.459Z,-0.31
2019-02-17T05:41:05.765Z,-0.31
2019-02-17T05:42:05.485Z,-0.31
2019-02-17T05:43:05.406Z,-0.31
2019-02-17T05:44:06.042Z,-0.31
2019-02-17T05:45:05.070Z,-0.31
2019-02-17T05:46:05.214Z,-0.31
2019-02-17T05:47:06.165Z,-0.31
2019-02-17T05:48:05.898Z,-0.31
2019-02-17T05:49:05.935Z,-0.31
2019-02-17T05:50:05.990Z,-0.31
2019-02-17T05:51:05.530Z,-0.31
2019-02-17T05:52:05.946Z,-0.31
2019-02-17T05:53:05.124Z,-0.31
2019-02-17T05:54:05.713Z,-0.31
2019-02-17T05:55:05.769Z,-0.31
2019-02-17T05:56:05.222Z,-0.31
2019-02-17T05:57:05.411Z,-0.31
2019-02-17T05:58:05.707Z,-0.31
2019-02-17T05:59:05.510Z,-0.31
2019-02-17T06:00:06.579Z,-0.31
2019-02-17T06:01:07.326Z,-0.31
2019-02-17T06:02:05.848Z,-0.31
2019-02-17T06:03:05.121Z,-0.31
2019-02-17T06:04:05.355Z,-0.31
2019-02-17T06:05:05.614Z,-0.31
2019-02-17T06:06:05.234Z,-0.31
2019-02-17T06:07:05.464Z,-0.25
2019-02-17T06:08:05.634Z,-0.31
2019-02-17T06:09:05.773Z,-0.31
2019-02-17T06:10:05.791Z,-0.25
2019-02-17T06:11:05.390Z,-0.25
2019-02-17T06:12:05.374Z,-0.25
2019-02-17T06:13:05.551Z,-0.25
2019-02-17T06:14:05.535Z,-0.25
2019-02-17T06:15:05.717Z,-0.25
2019-02-17T06:16:06.111Z,-0.25
2019-02-17T06:17:05.542Z,-0.25
2019-02-17T06:18:05.729Z,-0.25
2019-02-17T06:19:05.936Z,-0.25
2019-02-17T06:20:05.226Z,-0.25
2019-02-17T06:21:05.371Z,-0.25
2019-02-17T06:22:05.718Z,-0.25
2019-02-17T06:23:05.856Z,-0.31
2019-02-17T06:24:05.458Z,-0.31
2019-02-17T06:25:05.607Z,-0.31
2019-02-17T06:26:05.282Z,-0.31
2019-02-17T06:27:05.429Z,-0.25
2019-02-17T06:28:05.129Z,-0.25
2019-02-17T06:29:05.621Z,-0.31
2019-02-17T06:30:06.027Z,-0.31
2019-02-17T06:31:13.878Z,-0.25
2019-02-17T06:32:05.057Z,-0.31
2019-02-17T06:33:05.354Z,-0.25
2019-02-17T06:34:05.776Z,-0.25
2019-02-17T06:35:05.290Z,-0.25
2019-02-17T06:36:05.458Z,-0.25
2019-02-17T06:37:05.056Z,-0.25
2019-02-17T06:38:05.223Z,-0.25
2019-02-17T06:39:05.276Z,-0.25
2019-02-17T06:40:05.377Z,-0.25
2019-02-17T06:41:05.613Z,-0.25
2019-02-17T06:42:05.780Z,-0.25
2019-02-17T06:43:05.291Z,-0.25
2019-02-17T06:44:05.480Z,-0.19
2019-02-17T06:45:05.465Z,-0.19
2019-02-17T06:46:05.802Z,-0.19
2019-02-17T06:47:05.865Z,-0.19
2019-02-17T06:48:05.925Z,-0.19
2019-02-17T06:49:05.386Z,-0.12
2019-02-17T06:50:05.772Z,-0.12
2019-02-17T06:51:05.287Z,-0.12
2019-02-17T06:52:05.543Z,-0.12
2019-02-17T06:53:05.779Z,-0.12
2019-02-17T06:54:06.006Z,-0.06
2019-02-17T06:55:05.328Z,-0.06
2019-02-17T06:56:05.693Z,-0.06
2019-02-17T06:57:05.611Z,-0.06
2019-02-17T06:58:05.397Z,-0.06
2019-02-17T06:59:05.922Z,0.00
2019-02-17T07:00:05.065Z,0.00
2019-02-17T07:01:05.361Z,0.00
2019-02-17T07:02:05.577Z,0.00
2019-02-17T07:03:05.539Z,0.00
2019-02-17T07:04:05.870Z,0.06
2019-02-17T07:05:05.141Z,0.06
2019-02-17T07:06:05.536Z,0.06
2019-02-17T07:07:05.887Z,0.06
2019-02-17T07:08:06.034Z,0.06
2019-02-17T07:09:05.541Z,0.12
2019-02-17T07:10:05.726Z,0.12
2019-02-17T07:11:05.846Z,0.19
2019-02-17T07:12:06.058Z,0.19
2019-02-17T07:13:05.998Z,0.25
2019-02-17T07:14:05.697Z,0.25
2019-02-17T07:15:05.294Z,0.31
2019-02-17T07:16:05.546Z,0.38
2019-02-17T07:17:05.119Z,0.50
2019-02-17T07:18:05.303Z,0.56
2019-02-17T07:19:06.005Z,0.62
2019-02-17T07:20:05.141Z,0.75
2019-02-17T07:21:05.282Z,0.81
2019-02-17T07:22:05.788Z,0.94
2019-02-17T07:23:05.865Z,1.06
2019-02-17T07:24:05.255Z,1.19
2019-02-17T07:25:05.436Z,1.31
2019-02-17T07:26:05.545Z,1.44
2019-02-17T07:27:05.605Z,1.56
2019-02-17T07:28:05.157Z,1.69
2019-02-17T07:29:05.288Z,1.88
2019-02-17T07:30:05.705Z,2.00
2019-02-17T07:31:05.294Z,2.19
2019-02-17T07:32:05.543Z,2.31
2019-02-17T07:33:05.781Z,2.44
2019-02-17T07:34:05.062Z,2.62
2019-02-17T07:35:05.771Z,2.75
2019-02-17T07:36:05.538Z,2.88
2019-02-17T07:37:05.683Z,3.06
2019-02-17T07:38:05.898Z,3.19
2019-02-17T07:39:05.449Z,3.31
2019-02-17T07:40:05.939Z,3.50
2019-02-17T07:41:05.436Z,3.62
2019-02-17T07:42:05.952Z,3.75
2019-02-17T07:43:06.091Z,3.94
2019-02-17T07:44:05.655Z,4.06
2019-02-17T07:45:05.626Z,4.25
2019-02-17T07:46:05.875Z,4.38
2019-02-17T07:47:05.527Z,4.50
2019-02-17T07:48:05.950Z,4.62
2019-02-17T07:49:06.813Z,4.81
2019-02-17T07:50:05.704Z,4.94
2019-02-17T07:51:05.783Z,5.06
2019-02-17T07:52:05.864Z,5.19
2019-02-17T07:53:05.309Z,5.31
2019-02-17T07:54:05.720Z,5.44
2019-02-17T07:55:05.771Z,5.62
2019-02-17T07:56:05.947Z,5.75
2019-02-17T07:57:05.461Z,5.88
2019-02-17T07:58:05.514Z,6.00
2019-02-17T07:59:05.694Z,6.12
2019-02-17T08:00:05.958Z,6.25
2019-02-17T08:01:07.306Z,6.38
2019-02-17T08:02:05.966Z,6.50
2019-02-17T08:03:05.905Z,6.56
2019-02-17T08:04:05.963Z,6.69
2019-02-17T08:05:05.067Z,6.81
2019-02-17T08:06:05.391Z,6.94
2019-02-17T08:07:05.758Z,7.00
2019-02-17T08:08:05.467Z,7.12
2019-02-17T08:09:05.695Z,7.19
2019-02-17T08:10:05.716Z,7.31
2019-02-17T08:11:05.866Z,7.38
2019-02-17T08:12:05.961Z,7.50
2019-02-17T08:13:05.935Z,7.56
2019-02-17T08:14:05.616Z,7.62
2019-02-17T08:15:07.209Z,7.69
2019-02-17T08:16:05.874Z,7.75
2019-02-17T08:17:05.924Z,7.81
2019-02-17T08:18:05.463Z,7.94
2019-02-17T08:19:05.628Z,8.00
2019-02-17T08:20:05.871Z,8.06
2019-02-17T08:21:05.375Z,8.12
2019-02-17T08:22:05.184Z,8.19
2019-02-17T08:23:05.219Z,8.25
2019-02-17T08:24:05.631Z,8.25
2019-02-17T08:25:05.703Z,8.31
2019-02-17T08:26:06.597Z,8.38
2019-02-17T08:27:05.944Z,8.44
2019-02-17T08:28:06.015Z,8.50
2019-02-17T08:29:05.645Z,8.50
2019-02-17T08:30:05.071Z,8.56
2019-02-17T08:31:05.278Z,8.62
2019-02-17T08:32:05.705Z,8.62
2019-02-17T08:33:05.058Z,8.69
2019-02-17T08:34:05.301Z,8.69
2019-02-17T08:35:05.539Z,8.75
2019-02-17T08:36:05.618Z,8.75
2019-02-17T08:37:05.441Z,8.75
2019-02-17T08:38:05.782Z,8.81
2019-02-17T08:39:05.543Z,8.81
2019-02-17T08:40:05.620Z,8.81
2019-02-17T08:41:06.193Z,8.88
2019-02-17T08:42:05.448Z,8.88
2019-02-17T08:43:05.219Z,8.88
2019-02-17T08:44:05.938Z,8.88
2019-02-17T08:45:06.019Z,8.88
2019-02-17T08:46:05.293Z,8.88
2019-02-17T08:47:05.513Z,8.88
2019-02-17T08:48:05.396Z,8.94
2019-02-17T08:49:05.836Z,8.94
2019-02-17T08:50:05.407Z,8.94
2019-02-17T08:51:05.599Z,8.94
2019-02-17T08:52:05.799Z,9.06
2019-02-17T08:53:05.454Z,9.06
2019-02-17T08:54:05.847Z,9.12
2019-02-17T08:55:05.208Z,9.19
2019-02-17T08:56:05.298Z,9.31
2019-02-17T08:57:05.626Z,9.25
2019-02-17T08:58:05.769Z,9.31
2019-02-17T08:59:05.138Z,9.31
2019-02-17T09:00:05.381Z,9.31
2019-02-17T09:01:05.697Z,9.31
2019-02-17T09:02:06.292Z,9.31
2019-02-17T09:03:05.758Z,9.31
2019-02-17T09:04:05.308Z,9.31
2019-02-17T09:05:05.867Z,9.25
2019-02-17T09:06:06.127Z,9.25
2019-02-17T09:07:06.390Z,9.19
2019-02-17T09:08:05.041Z,9.19
2019-02-17T09:09:05.203Z,9.19
2019-02-17T09:10:06.056Z,9.12
2019-02-17T09:11:06.013Z,9.12
2019-02-17T09:12:05.152Z,9.12
2019-02-17T09:13:05.215Z,9.06
2019-02-17T09:14:05.307Z,9.12
2019-02-17T09:15:05.537Z,9.25
2019-02-17T09:16:05.606Z,9.31
2019-02-17T09:17:06.952Z,9.56
2019-02-17T09:18:06.199Z,9.81
2019-02-17T09:19:05.139Z,9.94
2019-02-17T09:20:07.915Z,9.94
2019-02-17T09:21:05.537Z,9.88
2019-02-17T09:22:05.776Z,9.81
2019-02-17T09:23:05.063Z,9.75
2019-02-17T09:24:05.481Z,9.69
2019-02-17T09:25:05.466Z,9.81
2019-02-17T09:26:05.627Z,9.94
2019-02-17T09:27:05.289Z,9.88
2019-02-17T09:28:05.876Z,9.81
2019-02-17T09:29:05.461Z,9.75
2019-02-17T09:30:05.567Z,9.69
2019-02-17T09:31:05.717Z,9.62
2019-02-17T09:32:15.598Z,9.56
2019-02-17T09:33:06.001Z,9.50
2019-02-17T09:34:05.150Z,9.50
2019-02-17T09:35:05.764Z,9.44
2019-02-17T09:36:05.956Z,9.38
2019-02-17T09:37:05.147Z,9.38
2019-02-17T09:38:05.570Z,9.38
2019-02-17T09:39:05.633Z,9.31
2019-02-17T09:40:05.617Z,9.31
2019-02-17T09:41:05.958Z,9.31
2019-02-17T09:42:05.238Z,9.25
2019-02-17T09:43:05.699Z,9.25
2019-02-17T09:44:05.948Z,9.25
2019-02-17T09:45:05.460Z,9.31
2019-02-17T09:46:05.871Z,9.50
2019-02-17T09:47:05.919Z,9.56
2019-02-17T09:48:05.529Z,9.50
2019-02-17T09:49:05.789Z,9.56
2019-02-17T09:50:06.377Z,9.62
2019-02-17T09:51:05.787Z,9.62
2019-02-17T09:52:05.220Z,9.69
2019-02-17T09:53:06.092Z,9.69
2019-02-17T09:54:05.409Z,9.75
2019-02-17T09:55:05.715Z,9.75
2019-02-17T09:56:05.791Z,9.81
2019-02-17T09:57:05.391Z,9.75
2019-02-17T09:58:05.708Z,9.75
2019-02-17T09:59:05.290Z,9.75
2019-02-17T10:00:06.030Z,9.75
2019-02-17T10:01:05.158Z,9.75
2019-02-17T10:02:05.309Z,9.75
2019-02-17T10:03:05.779Z,9.75
2019-02-17T10:04:05.225Z,9.75
2019-02-17T10:05:05.378Z,9.75
2019-02-17T10:06:05.942Z,9.81
2019-02-17T10:07:05.609Z,9.81
2019-02-17T10:08:05.705Z,9.81
2019-02-17T10:09:05.859Z,9.81
2019-02-17T10:10:05.389Z,9.81
2019-02-17T10:11:05.072Z,9.88
2019-02-17T10:12:05.382Z,9.88
2019-02-17T10:13:05.068Z,9.94
2019-02-17T10:14:05.393Z,10.00
2019-02-17T10:15:05.363Z,10.06
2019-02-17T10:16:05.158Z,10.06
2019-02-17T10:17:05.290Z,10.12
2019-02-17T10:18:05.878Z,10.12
2019-02-17T10:19:05.635Z,10.19
2019-02-17T10:20:05.623Z,10.19
2019-02-17T10:21:05.217Z,10.25
2019-02-17T10:22:05.569Z,10.25
2019-02-17T10:23:05.530Z,10.25
2019-02-17T10:24:05.038Z,10.31
2019-02-17T10:25:05.291Z,10.31
2019-02-17T10:26:05.441Z,10.31
2019-02-17T10:27:05.784Z,10.31
2019-02-17T10:28:05.952Z,10.31
2019-02-17T10:29:06.018Z,10.31
2019-02-17T10:30:05.233Z,10.38
2019-02-17T10:31:05.756Z,10.38
2019-02-17T10:32:05.313Z,10.38
2019-02-17T10:33:05.801Z,10.44
2019-02-17T10:34:05.287Z,10.44
2019-02-17T10:35:05.530Z,10.50
2019-02-17T10:36:05.687Z,10.50
2019-02-17T10:37:05.206Z,10.56
2019-02-17T10:38:05.849Z,10.56
2019-02-17T10:39:05.049Z,10.62
2019-02-17T10:40:05.556Z,10.62
2019-02-17T10:41:06.000Z,10.69
2019-02-17T10:42:05.151Z,10.69
2019-02-17T10:43:05.697Z,10.75
2019-02-17T10:44:05.755Z,10.81
2019-02-17T10:45:05.212Z,10.81
2019-02-17T10:46:06.084Z,10.81
2019-02-17T10:47:05.693Z,10.88
2019-02-17T10:48:05.373Z,10.94
2019-02-17T10:49:05.695Z,10.94
2019-02-17T10:50:05.936Z,11.00
2019-02-17T10:51:05.063Z,11.06
2019-02-17T10:52:05.141Z,11.06
2019-02-17T10:53:05.692Z,11.12
2019-02-17T10:54:06.034Z,11.12
2019-02-17T10:55:05.209Z,11.25
2019-02-17T10:56:05.197Z,11.25
2019-02-17T10:57:05.374Z,11.25
2019-02-17T10:58:05.852Z,11.31
2019-02-17T10:59:05.453Z,11.38
2019-02-17T11:00:05.694Z,11.38
2019-02-17T11:01:05.762Z,11.38
2019-02-17T11:02:06.013Z,11.44
2019-02-17T11:03:05.331Z,11.50
2019-02-17T11:04:05.207Z,11.50
2019-02-17T11:05:05.564Z,11.56
2019-02-17T11:06:05.520Z,11.62
2019-02-17T11:07:05.722Z,11.62
2019-02-17T11:08:05.774Z,11.69
2019-02-17T11:09:05.403Z,11.75
2019-02-17T11:10:05.535Z,11.75
2019-02-17T11:11:05.040Z,11.81
2019-02-17T11:12:05.221Z,11.81
2019-02-17T11:13:05.463Z,11.88
2019-02-17T11:14:05.677Z,11.94
2019-02-17T11:15:05.411Z,11.94
2019-02-17T11:16:05.541Z,12.00
2019-02-17T11:17:05.622Z,12.00
2019-02-17T11:18:05.134Z,12.06
2019-02-17T11:19:05.333Z,12.06
2019-02-17T11:20:05.369Z,12.12
2019-02-17T11:21:06.025Z,12.12
2019-02-17T11:22:05.117Z,12.19
2019-02-17T11:23:05.864Z,12.25
2019-02-17T11:24:06.501Z,12.25
2019-02-17T11:25:06.074Z,12.31
2019-02-17T11:26:06.117Z,12.31
2019-02-17T11:27:05.052Z,12.38
2019-02-17T11:28:05.291Z,12.38
2019-02-17T11:29:05.546Z,12.44
2019-02-17T11:30:06.007Z,12.44
2019-02-17T11:31:05.128Z,12.50
2019-02-17T11:32:05.689Z,12.50
2019-02-17T11:33:05.884Z,12.56
2019-02-17T11:34:05.776Z,12.56
2019-02-17T11:35:05.941Z,12.62
2019-02-17T11:36:05.128Z,12.62
2019-02-17T11:37:05.950Z,12.62
2019-02-17T11:38:05.693Z,12.62
2019-02-17T11:39:05.635Z,12.69
2019-02-17T11:40:05.677Z,12.69
2019-02-17T11:41:06.034Z,12.75
2019-02-17T11:42:05.134Z,12.75
2019-02-17T11:43:05.209Z,12.75
2019-02-17T11:44:05.649Z,12.81
2019-02-17T11:45:05.611Z,12.81
2019-02-17T11:46:05.848Z,12.88
2019-02-17T11:47:07.393Z,12.88
2019-02-17T11:48:05.083Z,12.94
2019-02-17T11:49:05.294Z,12.94
2019-02-17T11:50:05.518Z,13.00
2019-02-17T11:51:05.329Z,13.00
2019-02-17T11:52:05.225Z,13.06
2019-02-17T11:53:05.702Z,13.12
2019-02-17T11:54:06.104Z,13.12
2019-02-17T11:55:05.195Z,13.19
2019-02-17T11:56:05.610Z,13.19
2019-02-17T11:57:05.535Z,13.25
2019-02-17T11:58:05.785Z,13.25
2019-02-17T11:59:05.890Z,13.38
2019-02-17T12:00:06.106Z,13.44
2019-02-17T12:01:06.104Z,13.44
2019-02-17T12:02:05.213Z,13.56
2019-02-17T12:03:07.784Z,13.56
2019-02-17T12:04:05.831Z,13.62
2019-02-17T12:05:05.724Z,13.62
2019-02-17T12:06:05.306Z,13.69
2019-02-17T12:07:05.705Z,13.75
2019-02-17T12:08:05.863Z,13.81
2019-02-17T12:09:05.872Z,13.81
2019-02-17T12:10:05.946Z,13.88
2019-02-17T12:11:05.236Z,14.00
2019-02-17T12:12:05.225Z,14.00
2019-02-17T12:13:05.963Z,14.06
2019-02-17T12:14:05.934Z,14.19
2019-02-17T12:15:05.519Z,14.31
2019-02-17T12:16:05.843Z,14.44
2019-02-17T12:17:06.029Z,14.56
2019-02-17T12:18:05.149Z,14.69
2019-02-17T12:19:05.449Z,14.75
2019-02-17T12:20:05.871Z,14.81
2019-02-17T12:21:05.872Z,14.75
2019-02-17T12:22:05.282Z,14.75
2019-02-17T12:23:05.799Z,14.75
2019-02-17T12:24:05.951Z,14.81
2019-02-17T12:25:05.358Z,14.81
2019-02-17T12:26:05.610Z,14.81
2019-02-17T12:27:05.161Z,14.81
2019-02-17T12:28:05.282Z,14.81
2019-02-17T12:29:05.972Z,14.88
2019-02-17T12:30:06.012Z,14.88
2019-02-17T12:31:05.228Z,14.88
2019-02-17T12:32:05.787Z,14.88
2019-02-17T12:33:05.874Z,14.94
2019-02-17T12:34:05.977Z,14.94
2019-02-17T12:35:05.958Z,14.94
2019-02-17T12:36:06.017Z,14.94
2019-02-17T12:37:05.772Z,15.00
2019-02-17T12:38:05.124Z,15.00
2019-02-17T12:39:05.329Z,15.00
2019-02-17T12:40:05.392Z,15.06
2019-02-17T12:41:05.712Z,15.06
2019-02-17T12:42:05.594Z,15.06
2019-02-17T12:43:05.779Z,15.12
2019-02-17T12:44:05.479Z,15.12
2019-02-17T12:45:05.956Z,15.12
2019-02-17T12:46:05.514Z,15.19
2019-02-17T12:47:06.033Z,15.12
2019-02-17T12:48:05.449Z,15.19
2019-02-17T12:49:06.209Z,15.19
2019-02-17T12:50:06.109Z,15.19
2019-02-17T12:51:05.711Z,15.19
2019-02-17T12:52:05.853Z,15.25
2019-02-17T12:53:05.381Z,15.25
2019-02-17T12:54:05.875Z,15.25
2019-02-17T12:55:05.420Z,15.25
2019-02-17T12:56:05.794Z,15.25
2019-02-17T12:57:05.866Z,15.25
2019-02-17T12:58:05.706Z,15.31
2019-02-17T12:59:06.030Z,15.31
2019-02-17T13:00:05.433Z,15.31
2019-02-17T13:01:05.541Z,15.31
2019-02-17T13:02:06.165Z,15.31
2019-02-17T13:03:05.626Z,15.31
2019-02-17T13:04:05.036Z,15.31
2019-02-17T13:05:05.241Z,15.31
2019-02-17T13:06:05.376Z,15.31
2019-02-17T13:07:05.802Z,15.31